createdAt,value
2023-03-22T00:01:46.232Z,79.98
2023-03-22T00:04:12.725Z,79.81
2023-03-22T00:06:39.263Z,79.62
2023-03-22T00:09:05.783Z,79.82
2023-03-22T00:11:32.195Z,79.82
2023-03-22T00:13:58.911Z,79.83
2023-03-22T00:16:25.526Z,79.63
2023-03-22T00:18:51.986Z,79.52
2023-03-22T00:21:18.802Z,79.63
2023-03-22T00:23:46.181Z,79.75
2023-03-22T00:26:14.430Z,79.78
2023-03-22T00:28:41.614Z,79.87
2023-03-22T00:31:09.250Z,79.63
2023-03-22T00:33:36.285Z,79.82
2023-03-22T00:36:11.191Z,79.89
2023-03-22T00:38:42.662Z,80.02
2023-03-22T00:41:13.782Z,79.75
2023-03-22T00:43:40.702Z,80.04
2023-03-22T00:46:08.056Z,79.91
2023-03-22T00:48:35.161Z,79.90
2023-03-22T00:51:01.962Z,79.69
2023-03-22T00:53:32.895Z,79.93
2023-03-22T00:55:59.990Z,79.76
2023-03-22T00:58:26.380Z,79.80
2023-03-22T01:00:52.981Z,79.86
2023-03-22T01:03:21.781Z,79.74
2023-03-22T01:05:49.353Z,79.80
2023-03-22T01:08:16.687Z,79.69
2023-03-22T01:10:44.242Z,79.43
2023-03-22T01:13:11.306Z,79.63
2023-03-22T01:15:37.862Z,79.43
2023-03-22T01:18:04.461Z,79.50
2023-03-22T01:20:32.037Z,79.55
2023-03-22T01:22:59.416Z,79.55
2023-03-22T01:25:25.936Z,79.38
2023-03-22T01:27:52.419Z,79.49
2023-03-22T01:30:18.956Z,79.65
2023-03-22T01:32:45.476Z,79.62
2023-03-22T01:35:11.948Z,79.54
2023-03-22T01:37:38.345Z,79.57
2023-03-22T01:40:05.673Z,79.33
2023-03-22T01:42:32.245Z,79.33
2023-03-22T01:45:13.596Z,79.41
2023-03-22T01:47:54.800Z,79.41
2023-03-22T01:50:23.107Z,79.44
2023-03-22T01:52:52.075Z,79.36
2023-03-22T01:55:22.732Z,79.35
2023-03-22T01:57:50.428Z,79.52
2023-03-22T02:00:18.920Z,79.52
2023-03-22T02:02:49.412Z,79.51
2023-03-22T02:05:17.003Z,79.73
2023-03-22T02:07:44.317Z,79.61
2023-03-22T02:10:23.130Z,79.49
2023-03-22T02:13:05.514Z,79.81
2023-03-22T02:15:59.961Z,79.79
2023-03-22T02:18:46.848Z,79.92
2023-03-22T02:21:45.590Z,79.96
2023-03-22T02:24:36.442Z,79.91
2023-03-22T02:27:16.213Z,80.18
2023-03-22T02:30:02.839Z,79.95
2023-03-22T02:32:54.232Z,80.20
2023-03-22T02:35:36.537Z,80.11
2023-03-22T02:38:29.660Z,80.27
2023-03-22T02:41:23.290Z,80.46
2023-03-22T02:44:10.206Z,80.77
2023-03-22T02:47:11.804Z,80.78
2023-03-22T02:49:49.395Z,81.24
2023-03-22T02:52:24.870Z,81.54
2023-03-22T02:54:56.697Z,81.32
2023-03-22T02:57:33.389Z,81.63
2023-03-22T03:00:02.555Z,81.94
2023-03-22T03:02:31.138Z,81.98
2023-03-22T03:04:58.039Z,82.44
2023-03-22T03:07:28.801Z,82.53
2023-03-22T03:09:56.379Z,82.65
2023-03-22T03:12:26.884Z,82.95
2023-03-22T03:14:53.600Z,83.05
2023-03-22T03:18:18.369Z,83.06
2023-03-22T03:21:06.570Z,83.53
2023-03-22T03:23:52.467Z,83.75
2023-03-22T03:26:33.090Z,83.73
2023-03-22T03:29:05.340Z,84.08
2023-03-22T03:31:46.867Z,84.28
2023-03-22T03:34:24.701Z,84.49
2023-03-22T03:36:59.049Z,84.49
2023-03-22T03:39:28.196Z,84.55
2023-03-22T03:41:56.674Z,84.86
2023-03-22T03:44:24.222Z,84.83
2023-03-22T03:46:52.802Z,85.02
2023-03-22T03:49:21.828Z,84.84
2023-03-22T03:51:56.276Z,85.03
2023-03-22T03:54:23.518Z,85.10
2023-03-22T03:56:50.895Z,85.19
2023-03-22T03:59:18.626Z,85.42
2023-03-22T04:01:52.544Z,85.40
2023-03-22T04:04:30.800Z,85.43
2023-03-22T04:06:59.849Z,85.37
2023-03-22T04:09:29.190Z,85.37
2023-03-22T04:11:57.454Z,85.52
2023-03-22T04:14:25.799Z,85.47
2023-03-22T04:16:53.088Z,85.61
2023-03-22T04:19:19.915Z,85.67
2023-03-22T04:21:46.663Z,85.54
2023-03-22T04:24:14.436Z,85.62
2023-03-22T04:26:41.248Z,85.58
2023-03-22T04:29:08.006Z,85.72
2023-03-22T04:31:36.537Z,85.65
2023-03-22T04:34:05.764Z,85.71
2023-03-22T04:36:36.381Z,85.86
2023-03-22T04:39:05.989Z,85.83
2023-03-22T04:41:33.366Z,85.74
2023-03-22T04:44:03.273Z,85.72
2023-03-22T04:46:30.904Z,85.61
2023-03-22T04:48:57.663Z,85.53
2023-03-22T04:51:24.926Z,85.70
2023-03-22T04:53:51.860Z,85.67
2023-03-22T04:56:18.414Z,85.70
2023-03-22T04:58:45.961Z,85.44
2023-03-22T05:01:15.342Z,85.45
2023-03-22T05:03:43.013Z,85.53
2023-03-22T05:06:10.223Z,85.47
2023-03-22T05:08:36.904Z,85.47
2023-03-22T05:11:13.020Z,85.38
2023-03-22T05:13:40.180Z,85.46
2023-03-22T05:16:07.660Z,85.25
2023-03-22T05:18:34.122Z,85.33
2023-03-22T05:21:03.838Z,85.33
2023-03-22T05:23:30.382Z,85.20
2023-03-22T05:25:58.207Z,85.13
2023-03-22T05:28:27.121Z,85.34
2023-03-22T05:30:56.617Z,84.95
2023-03-22T05:33:23.490Z,85.20
2023-03-22T05:35:51.194Z,85.27
2023-03-22T05:38:18.182Z,85.12
2023-03-22T05:40:45.342Z,85.04
2023-03-22T05:43:12.278Z,84.98
2023-03-22T05:45:38.786Z,85.16
2023-03-22T05:48:05.675Z,85.10
2023-03-22T05:50:32.655Z,84.90
2023-03-22T05:52:59.473Z,85.00
2023-03-22T05:55:26.725Z,84.73
2023-03-22T05:57:54.689Z,84.89
2023-03-22T06:00:21.830Z,84.68
2023-03-22T06:02:49.242Z,84.74
2023-03-22T06:05:17.018Z,84.77
2023-03-22T06:07:44.183Z,84.99
2023-03-22T06:10:13.502Z,84.82
2023-03-22T06:12:40.190Z,84.67
2023-03-22T06:15:08.013Z,84.65
2023-03-22T06:17:34.459Z,84.59
2023-03-22T06:20:00.821Z,84.78
2023-03-22T06:22:30.357Z,84.46
2023-03-22T06:24:56.815Z,84.87
2023-03-22T06:27:23.224Z,84.68
2023-03-22T06:29:50.866Z,84.40
2023-03-22T06:32:17.757Z,84.49
2023-03-22T06:34:44.261Z,84.42
2023-03-22T06:37:10.731Z,84.69
2023-03-22T06:39:37.144Z,84.43
2023-03-22T06:42:03.684Z,84.46
2023-03-22T06:44:30.159Z,84.65
2023-03-22T06:46:56.488Z,84.49
2023-03-22T06:49:22.994Z,84.43
2023-03-22T06:51:49.511Z,84.36
2023-03-22T06:54:16.770Z,84.17
2023-03-22T06:56:43.208Z,84.00
2023-03-22T06:59:09.666Z,83.88
2023-03-22T07:01:36.378Z,84.02
2023-03-22T07:04:02.910Z,83.94
2023-03-22T07:06:30.769Z,83.84
2023-03-22T07:08:57.209Z,83.77
2023-03-22T07:11:25.817Z,83.43
2023-03-22T07:13:55.647Z,83.50
2023-03-22T07:16:22.194Z,83.60
2023-03-22T07:18:48.828Z,83.29
2023-03-22T07:21:15.438Z,83.04
2023-03-22T07:23:41.932Z,82.75
2023-03-22T07:26:08.380Z,82.93
2023-03-22T07:28:35.311Z,82.51
2023-03-22T07:31:11.557Z,82.66
2023-03-22T07:33:38.991Z,82.83
2023-03-22T07:36:07.545Z,82.56
2023-03-22T07:38:34.507Z,82.47
2023-03-22T07:41:00.914Z,82.29
2023-03-22T07:43:27.277Z,82.16
2023-03-22T07:45:53.837Z,82.48
2023-03-22T07:48:22.791Z,82.00
2023-03-22T07:50:49.630Z,82.01
2023-03-22T07:53:16.085Z,82.04
2023-03-22T07:55:42.647Z,81.93
2023-03-22T07:58:09.312Z,81.92
2023-03-22T08:00:35.906Z,81.91
2023-03-22T08:03:02.391Z,81.58
2023-03-22T08:05:28.873Z,81.59
2023-03-22T08:07:56.828Z,81.50
2023-03-22T08:10:23.348Z,81.57
2023-03-22T08:12:49.821Z,81.58
2023-03-22T08:15:16.468Z,81.36
2023-03-22T08:17:42.941Z,81.09
2023-03-22T08:20:09.903Z,80.93
2023-03-22T08:22:36.599Z,81.17
2023-03-22T08:25:04.617Z,80.76
2023-03-22T08:27:31.524Z,80.66
2023-03-22T08:29:58.304Z,80.68
2023-03-22T08:32:25.087Z,80.13
2023-03-22T08:34:52.750Z,80.41
2023-03-22T08:37:22.543Z,80.52
2023-03-22T08:39:49.121Z,80.08
2023-03-22T08:42:15.663Z,80.27
2023-03-22T08:44:42.086Z,80.17
2023-03-22T08:47:08.554Z,80.38
2023-03-22T08:49:35.634Z,79.77
2023-03-22T08:52:02.174Z,79.84
2023-03-22T08:54:33.304Z,79.77
2023-03-22T08:57:00.593Z,79.57
2023-03-22T08:59:27.119Z,79.91
2023-03-22T09:01:53.642Z,79.32
2023-03-22T09:04:20.230Z,78.78
2023-03-22T09:06:47.049Z,78.82
2023-03-22T09:09:14.056Z,78.24
2023-03-22T09:11:42.550Z,78.51
2023-03-22T09:14:09.647Z,78.41
2023-03-22T09:16:36.183Z,78.35
2023-03-22T09:19:02.659Z,78.08
2023-03-22T09:21:31.958Z,78.41
2023-03-22T09:23:58.392Z,78.01
2023-03-22T09:26:25.595Z,78.27
2023-03-22T09:28:52.161Z,78.34
2023-03-22T09:31:20.570Z,78.56
2023-03-22T09:33:47.829Z,78.98
2023-03-22T09:36:14.362Z,79.19
2023-03-22T09:38:41.941Z,79.61
2023-03-22T09:41:37.719Z,79.75
2023-03-22T09:44:10.904Z,80.17
2023-03-22T09:46:40.816Z,80.75
2023-03-22T09:49:18.198Z,81.16
2023-03-22T09:51:53.244Z,81.91
2023-03-22T09:54:32.083Z,82.31
2023-03-22T09:57:25.016Z,82.56
2023-03-22T09:59:58.342Z,83.15
2023-03-22T10:02:36.704Z,83.37
2023-03-22T10:05:29.683Z,83.74
2023-03-22T10:08:21.104Z,84.08
2023-03-22T10:10:47.918Z,84.22
2023-03-22T10:13:25.047Z,84.50
2023-03-22T10:15:54.576Z,85.20
2023-03-22T10:18:25.212Z,85.13
2023-03-22T10:21:01.582Z,85.31
2023-03-22T10:23:34.075Z,85.42
2023-03-22T10:26:03.617Z,85.53
2023-03-22T10:28:44.634Z,85.66
2023-03-22T10:31:17.416Z,85.71
2023-03-22T10:33:52.685Z,85.88
2023-03-22T10:36:22.847Z,85.85
2023-03-22T10:38:54.433Z,85.82
2023-03-22T10:41:23.293Z,85.91
2023-03-22T10:43:56.912Z,85.85
2023-03-22T10:46:26.416Z,85.86
2023-03-22T10:48:59.387Z,86.04
2023-03-22T10:51:45.982Z,86.32
2023-03-22T10:54:15.416Z,86.54
2023-03-22T10:56:43.512Z,86.55
2023-03-22T10:59:47.461Z,86.54
2023-03-22T11:02:23.790Z,86.49
2023-03-22T11:04:53.018Z,86.81
2023-03-22T11:07:43.838Z,87.06
2023-03-22T11:10:10.213Z,87.13
2023-03-22T11:12:58.222Z,86.98
2023-03-22T11:15:32.802Z,87.24
2023-03-22T11:18:11.310Z,87.45
2023-03-22T11:20:41.142Z,87.27
2023-03-22T11:23:12.285Z,87.22
2023-03-22T11:25:46.485Z,86.97
2023-03-22T11:28:28.973Z,86.99
2023-03-22T11:31:15.995Z,86.80
2023-03-22T11:33:54.770Z,86.67
2023-03-22T11:36:21.393Z,86.73
2023-03-22T11:38:48.898Z,87.18
2023-03-22T11:41:28.225Z,86.93
2023-03-22T11:44:04.501Z,86.35
2023-03-22T11:46:34.098Z,86.03
2023-03-22T11:49:05.882Z,85.96
2023-03-22T11:51:35.141Z,85.86
2023-03-22T11:54:08.778Z,85.83
2023-03-22T11:56:42.261Z,85.65
2023-03-22T11:59:14.551Z,85.54
2023-03-22T12:01:45.137Z,85.46
2023-03-22T12:04:19.775Z,85.15
2023-03-22T12:06:47.608Z,85.29
2023-03-22T12:09:38.271Z,85.04
2023-03-22T12:12:09.352Z,84.81
2023-03-22T12:14:55.544Z,84.93
2023-03-22T12:17:49.176Z,84.63
2023-03-22T12:20:18.399Z,84.86
2023-03-22T12:22:51.790Z,84.52
2023-03-22T12:25:23.200Z,84.55
2023-03-22T12:28:33.329Z,84.79
2023-03-22T12:31:00.982Z,84.53
2023-03-22T12:33:42.265Z,84.67
2023-03-22T12:36:16.476Z,84.70
2023-03-22T12:38:57.375Z,84.41
2023-03-22T12:41:34.796Z,84.32
2023-03-22T12:44:19.446Z,84.19
2023-03-22T12:46:56.552Z,84.21
2023-03-22T12:49:53.189Z,84.13
2023-03-22T12:52:23.408Z,84.18
2023-03-22T12:54:52.391Z,84.12
2023-03-22T12:57:19.568Z,83.96
2023-03-22T12:59:51.557Z,84.33
2023-03-22T13:02:34.218Z,84.12
2023-03-22T13:05:04.989Z,84.10
2023-03-22T13:07:37.189Z,84.22
2023-03-22T13:10:36.285Z,84.36
2023-03-22T13:13:32.837Z,84.34
2023-03-22T13:16:16.752Z,84.23
2023-03-22T13:18:43.102Z,84.33
2023-03-22T13:21:15.254Z,84.63
2023-03-22T13:24:07.568Z,84.50
2023-03-22T13:26:45.557Z,84.45
2023-03-22T13:29:20.849Z,84.45
2023-03-22T13:32:00.159Z,84.13
2023-03-22T13:34:48.748Z,84.15
2023-03-22T13:37:34.730Z,84.04
2023-03-22T13:40:11.927Z,83.95
2023-03-22T13:42:40.599Z,84.19
2023-03-22T13:45:27.328Z,84.52
2023-03-22T13:48:32.605Z,84.64
2023-03-22T13:51:14.457Z,84.60
2023-03-22T13:54:01.026Z,84.86
2023-03-22T13:57:00.804Z,85.13
2023-03-22T13:59:27.466Z,85.38
2023-03-22T14:01:57.427Z,85.13
2023-03-22T14:04:32.154Z,85.38
2023-03-22T14:07:04.286Z,85.57
2023-03-22T14:09:45.389Z,85.59
2023-03-22T14:12:21.149Z,85.79
2023-03-22T14:14:54.900Z,85.86
2023-03-22T14:17:35.667Z,85.83
2023-03-22T14:20:08.547Z,85.89
